Time;durP1;ratioP1;P1;durP2;ratioP2;P2;SDS_P1;SDS_P2;PMS_P1;PMS_P2;Temp;Humidity;BMP_temperature;BMP_pressure;BME280_temperature;BME280_humidity;BME280_pressure;Samples;Min_cycle;Max_cycle;Signal;HPM_P1;HPM_P2
2022/08/20 00:01:03;;;;;;;5.13;1.30;;;;;;;19.13;66.11;92878.47;2018884;71;20200;-79
2022/08/20 00:03:32;;;;;;;4.18;1.70;;;;;;;18.99;65.31;92878.75;2015992;71;20230;-82
2022/08/20 00:06:11;;;;;;;5.80;1.80;;;;;;;19.21;63.74;92875.91;2019048;71;20157;-74
2022/08/20 00:08:38;;;;;;;3.13;1.77;;;;;;;18.96;66.42;92877.22;2019036;71;20149;-75
2022/08/20 00:11:07;;;;;;;2.72;1.75;;;;;;;19.04;66.12;92877.50;2016143;71;20167;-73
2022/08/20 00:13:37;;;;;;;6.00;1.70;;;;;;;19.07;64.74;92881.16;2016658;71;20192;-73
2022/08/20 00:16:04;;;;;;;6.53;1.85;;;;;;;18.76;69.12;92888.69;2018941;71;20154;-75
2022/08/20 00:18:30;;;;;;;2.72;1.70;;;;;;;18.84;67.80;92893.94;2018651;71;20205;-73
2022/08/20 00:20:56;;;;;;;4.15;2.00;;;;;;;18.79;67.95;92889.50;2020789;71;20149;-74
2022/08/20 00:23:23;;;;;;;4.30;1.45;;;;;;;18.91;67.60;92892.75;2020746;71;20831;-73
2022/08/20 00:25:50;;;;;;;4.72;1.80;;;;;;;18.68;68.29;92894.09;2020805;71;20631;-76
2022/08/20 00:28:16;;;;;;;3.08;1.60;;;;;;;18.90;65.94;92894.16;2020932;71;20618;-76
2022/08/20 00:30:45;;;;;;;4.47;2.13;;;;;;;18.75;68.62;92889.38;2020999;71;20249;-75
2022/08/20 00:33:15;;;;;;;4.35;2.10;;;;;;;18.32;71.56;92893.56;2021014;71;20149;-76
2022/08/20 00:35:46;;;;;;;6.10;2.53;;;;;;;18.63;69.84;92886.81;2020917;71;20353;-74
2022/08/20 00:38:11;;;;;;;4.78;2.10;;;;;;;18.61;69.84;92889.59;2020818;71;20645;-74
2022/08/20 00:40:48;;;;;;;3.50;1.70;;;;;;;18.61;70.26;92883.91;2020829;71;20243;-74
2022/08/20 00:43:35;;;;;;;4.03;2.08;;;;;;;18.77;69.17;92884.44;2020872;71;20617;-74
2022/08/20 00:46:26;;;;;;;3.05;1.88;;;;;;;18.66;69.80;92894.03;2020802;71;20172;-75
2022/08/20 00:48:54;;;;;;;6.07;1.80;;;;;;;18.75;68.59;92892.22;2020904;71;20225;-74
2022/08/20 00:51:41;;;;;;;2.72;1.80;;;;;;;18.57;69.65;92894.44;2018128;71;20189;-76
2022/08/20 00:54:15;;;;;;;2.00;1.80;;;;;;;18.67;68.81;92889.06;2017966;71;20154;-75
2022/08/20 00:56:44;;;;;;;4.43;2.00;;;;;;;18.59;68.20;92883.81;2017937;71;20227;-74
2022/08/20 00:59:13;;;;;;;3.88;2.38;;;;;;;18.71;68.07;92878.56;2017614;71;20550;-78
2022/08/20 01:01:41;;;;;;;5.72;2.20;;;;;;;18.57;68.96;92874.47;2017930;71;20304;-75
2022/08/20 01:04:09;;;;;;;4.47;2.53;;;;;;;18.75;66.77;92869.41;2018275;71;20245;-76
2022/08/20 01:06:40;;;;;;;4.65;2.42;;;;;;;18.51;68.96;92866.44;2018440;71;20587;-75
2022/08/20 01:09:06;;;;;;;3.92;2.25;;;;;;;18.40;71.08;92870.31;2017878;71;20168;-75
2022/08/20 01:11:35;;;;;;;4.35;2.40;;;;;;;18.21;72.13;92863.28;2017582;71;20178;-75
2022/08/20 01:14:27;;;;;;;3.78;2.70;;;;;;;18.46;69.52;92862.72;2017447;71;20184;-75
2022/08/20 01:16:59;;;;;;;3.42;2.40;;;;;;;18.50;67.86;92859.28;2018115;71;20150;-76
2022/08/20 01:19:50;;;;;;;3.47;2.55;;;;;;;18.48;69.37;92859.94;2017807;71;20145;-76
2022/08/20 01:25:14;;;;;;;;;;;;;;;18.61;67.36;92866.06;2017723;71;20270;-74
2022/08/20 01:27:40;;;;;;;2.80;2.40;;;;;;;18.60;67.45;92859.63;2017785;71;20188;-73
2022/08/20 01:30:07;;;;;;;5.40;2.55;;;;;;;18.33;69.07;92852.31;2014637;71;20134;-77
2022/08/20 01:32:53;;;;;;;3.60;2.20;;;;;;;18.44;67.44;92851.25;2008264;71;20619;-75
2022/08/20 01:35:21;;;;;;;4.72;2.67;;;;;;;18.29;70.01;92861.44;2010254;71;20189;-76
2022/08/20 01:37:47;;;;;;;3.72;2.70;;;;;;;18.51;68.22;92850.06;2010290;71;20597;-75
2022/08/20 01:40:20;;;;;;;5.30;2.67;;;;;;;18.52;68.15;92845.81;2010350;71;20223;-78
2022/08/20 01:42:49;;;;;;;6.63;2.70;;;;;;;18.43;68.36;92838.41;2010427;71;20269;-76
2022/08/20 01:45:14;;;;;;;4.40;2.63;;;;;;;18.44;68.76;92837.00;2010269;71;20146;-78
2022/08/20 01:47:40;;;;;;;3.38;3.00;;;;;;;18.34;69.75;92844.47;2010392;71;20142;-79
2022/08/20 01:50:20;;;;;;;4.57;3.15;;;;;;;18.44;69.05;92841.97;2014754;71;20192;-76
2022/08/20 01:52:56;;;;;;;4.65;2.63;;;;;;;18.35;68.47;92840.97;2016919;71;20642;-77
2022/08/20 01:55:21;;;;;;;5.45;2.80;;;;;;;18.44;68.18;92842.69;2016725;71;20177;-81
2022/08/20 01:57:47;;;;;;;4.20;2.70;;;;;;;18.33;70.36;92852.31;2014077;71;20157;-77
2022/08/20 02:00:18;;;;;;;5.53;2.80;;;;;;;18.21;70.03;92849.03;2013765;71;20139;-78
2022/08/20 02:02:46;;;;;;;3.60;2.60;;;;;;;18.25;70.38;92840.63;2013539;71;20200;-74
2022/08/20 02:05:12;;;;;;;6.93;2.78;;;;;;;18.27;70.17;92841.41;2013426;71;20275;-75
2022/08/20 02:07:45;;;;;;;4.10;2.72;;;;;;;18.24;69.68;92842.75;2013623;71;20206;-78
2022/08/20 02:10:14;;;;;;;3.83;2.90;;;;;;;18.23;70.09;92846.97;2015346;71;20607;-77
2022/08/20 02:12:40;;;;;;;4.45;2.90;;;;;;;18.26;70.13;92839.94;2014315;71;20185;-79
2022/08/20 02:15:09;;;;;;;5.40;3.10;;;;;;;18.28;70.05;92839.31;2011386;71;20189;-76
2022/08/20 02:17:35;;;;;;;5.72;3.08;;;;;;;18.17;70.70;92848.88;2017579;71;20146;-76
2022/08/20 02:20:07;;;;;;;4.05;2.88;;;;;;;18.10;71.60;92844.34;2017426;71;20173;-77
2022/08/20 02:22:43;;;;;;;5.40;2.97;;;;;;;18.13;71.08;92838.06;2017309;71;20295;-77
2022/08/20 02:25:10;;;;;;;5.20;2.90;;;;;;;18.19;70.72;92831.84;2017585;71;20173;-79
2022/08/20 02:27:38;;;;;;;6.55;2.90;;;;;;;18.31;68.04;92842.94;2017759;71;20212;-79
2022/08/20 02:30:10;;;;;;;5.25;2.70;;;;;;;18.11;71.52;92840.84;2017332;71;20161;-79
2022/08/20 02:32:37;;;;;;;6.13;2.85;;;;;;;18.17;69.94;92837.47;2017702;71;20233;-77
2022/08/20 02:35:09;;;;;;;4.28;2.92;;;;;;;18.26;69.84;92833.53;2018088;71;20158;-79
2022/08/20 02:37:36;;;;;;;7.03;2.90;;;;;;;18.23;69.64;92832.72;2017891;71;20213;-81
2022/08/20 02:40:06;;;;;;;4.63;3.20;;;;;;;18.22;70.85;92827.69;2017727;71;20154;-78
2022/08/20 02:42:33;;;;;;;4.57;3.03;;;;;;;18.22;69.61;92830.53;2017865;71;20615;-83
2022/08/20 02:44:59;;;;;;;4.53;3.22;;;;;;;18.18;69.59;92821.84;2017558;71;20437;-83
2022/08/20 02:47:26;;;;;;;4.20;3.17;;;;;;;18.09;70.58;92820.09;2014626;71;20668;-79
2022/08/20 02:49:53;;;;;;;5.43;3.35;;;;;;;18.25;69.67;92826.38;2019419;71;20192;-80
2022/08/20 02:52:20;;;;;;;5.78;3.08;;;;;;;18.13;70.47;92834.50;2020906;71;20210;-78
2022/08/20 02:54:47;;;;;;;3.55;2.70;;;;;;;18.21;68.80;92834.78;2020846;71;20149;-81
2022/08/20 02:57:15;;;;;;;5.70;3.20;;;;;;;18.19;69.92;92831.84;2021004;71;20250;-78
2022/08/20 02:59:42;;;;;;;6.88;3.25;;;;;;;18.15;70.70;92828.88;2020837;71;20579;-77
2022/08/20 03:02:08;;;;;;;5.32;3.58;;;;;;;18.16;70.44;92827.47;2020898;71;20153;-78
2022/08/20 03:04:33;;;;;;;4.80;2.90;;;;;;;18.18;69.96;92827.53;2020901;71;20134;-78
2022/08/20 03:06:59;;;;;;;3.85;2.90;;;;;;;18.18;70.38;92819.72;2020868;71;20161;-76
2022/08/20 03:09:26;;;;;;;5.15;3.03;;;;;;;18.20;69.69;92819.81;2020634;71;20196;-79
2022/08/20 03:11:53;;;;;;;6.78;3.00;;;;;;;18.35;68.23;92821.00;2020844;71;20153;-77
2022/08/20 03:14:18;;;;;;;3.33;2.70;;;;;;;18.21;70.29;92820.53;2020682;71;20165;-79
2022/08/20 03:16:44;;;;;;;4.75;3.10;;;;;;;18.18;70.71;92814.03;2020917;71;20227;-81
2022/08/20 03:19:10;;;;;;;3.38;3.00;;;;;;;18.22;70.00;92825.56;2020755;71;20626;-81
2022/08/20 03:21:36;;;;;;;6.13;3.00;;;;;;;18.16;68.77;92822.50;2020800;71;20141;-82
2022/08/20 03:24:02;;;;;;;4.57;3.25;;;;;;;18.12;70.49;92813.81;2020872;71;20164;-78
2022/08/20 03:26:27;;;;;;;3.67;2.85;;;;;;;18.13;69.92;92814.53;2020887;71;20173;-77
2022/08/20 03:28:53;;;;;;;3.80;3.40;;;;;;;18.14;70.73;92816.72;2020729;71;20583;-81
2022/08/20 03:31:19;;;;;;;6.22;3.28;;;;;;;18.20;69.13;92814.09;2020872;71;20538;-81
2022/08/20 03:33:45;;;;;;;3.60;2.90;;;;;;;18.33;67.91;92814.53;2017631;71;20464;-80
2022/08/20 03:36:11;;;;;;;4.75;3.05;;;;;;;18.22;67.57;92816.28;2021301;71;20243;-80
2022/08/20 03:38:37;;;;;;;3.53;2.90;;;;;;;18.17;70.25;92823.97;2021354;71;20591;-80
2022/08/20 03:41:03;;;;;;;3.95;2.95;;;;;;;18.07;69.85;92820.75;2021375;71;20218;-80
2022/08/20 03:43:29;;;;;;;5.30;3.10;;;;;;;18.07;70.20;92826.47;2018059;71;20215;-78
2022/08/20 03:45:55;;;;;;;3.83;3.20;;;;;;;18.02;69.40;92827.72;2021464;71;20154;-78
2022/08/20 03:48:21;;;;;;;4.07;3.15;;;;;;;18.04;70.24;92827.78;2021972;71;20153;-82
2022/08/20 03:50:48;;;;;;;5.35;3.28;;;;;;;18.04;70.02;92824.94;2021331;71;20153;-78
2022/08/20 03:53:15;;;;;;;5.18;3.13;;;;;;;18.10;69.04;92828.00;2021536;71;20259;-79
2022/08/20 03:55:44;;;;;;;5.13;3.35;;;;;;;18.01;70.32;92832.69;2021334;71;20236;-81
2022/08/20 03:58:09;;;;;;;5.50;3.10;;;;;;;17.97;70.43;92829.69;2021299;71;20169;-79
2022/08/20 04:00:42;;;;;;;5.22;2.97;;;;;;;18.19;68.00;92824.06;2021089;71;20180;-79
2022/08/20 04:03:08;;;;;;;;;;;;;;;18.03;70.64;92826.31;2018463;71;20145;-81
2022/08/20 04:05:39;;;;;;;3.97;3.13;;;;;;;18.04;69.79;92825.66;2021374;71;20503;-80
2022/08/20 04:08:16;;;;;;;3.38;2.80;;;;;;;18.09;69.79;92834.34;2021439;71;20149;-80
2022/08/20 04:10:45;;;;;;;5.43;2.97;;;;;;;17.95;71.07;92826.03;2018080;71;20153;-82
2022/08/20 04:13:11;;;;;;;4.35;2.60;;;;;;;18.06;68.34;92827.84;2017901;71;20130;-77
2022/08/20 04:15:37;;;;;;;4.18;2.67;;;;;;;18.12;68.11;92822.38;2021208;71;20599;-81
2022/08/20 04:18:06;;;;;;;7.57;3.50;;;;;;;18.01;70.50;92829.09;2021498;71;20148;-78
2022/08/20 04:20:36;;;;;;;5.28;2.83;;;;;;;18.03;68.88;92832.00;2019337;71;20161;-79
2022/08/20 04:23:03;;;;;;;7.68;2.97;;;;;;;18.07;68.82;92834.28;2022696;71;20153;-85
2022/08/20 04:25:31;;;;;;;4.13;2.92;;;;;;;18.06;68.12;92830.72;2018440;71;20229;-82
2022/08/20 04:27:59;;;;;;;3.58;2.60;;;;;;;18.16;69.41;92844.56;2021355;71;20181;-83
2022/08/20 04:30:25;;;;;;;3.63;2.80;;;;;;;17.93;70.41;92838.09;2021401;71;20399;-85
2022/08/20 04:32:52;;;;;;;5.30;3.08;;;;;;;17.92;69.21;92845.19;2021228;71;20157;-84
2022/08/20 04:35:18;;;;;;;4.03;3.03;;;;;;;18.11;69.63;92857.22;2021394;71;20672;-83
2022/08/20 04:37:45;;;;;;;4.20;3.00;;;;;;;17.90;71.14;92852.91;2021257;71;20141;-83
2022/08/20 04:42:59;;;;;;;4.30;2.90;;;;;;;17.96;70.98;92850.25;2018108;71;20162;-82
2022/08/20 04:45:25;;;;;;;4.75;2.97;;;;;;;17.95;71.60;92854.50;2021001;71;20156;-76
2022/08/20 04:47:52;;;;;;;4.70;2.80;;;;;;;17.97;70.53;92863.13;2021148;71;20214;-77
2022/08/20 04:50:19;;;;;;;3.75;2.95;;;;;;;17.99;69.99;92860.34;2018862;71;20142;-77
2022/08/20 04:52:48;;;;;;;3.22;2.88;;;;;;;17.92;70.97;92862.25;2014739;71;20579;-78
2022/08/20 04:55:16;;;;;;;3.70;3.08;;;;;;;17.92;71.59;92859.41;2018074;71;20579;-78
2022/08/20 04:57:42;;;;;;;3.72;3.10;;;;;;;17.85;72.79;92859.84;2018085;71;20614;-77
2022/08/20 05:00:13;;;;;;;3.30;2.38;;;;;;;17.99;69.06;92861.09;2018002;71;20136;-78
2022/08/20 05:02:38;;;;;;;4.38;3.13;;;;;;;17.97;71.18;92854.59;2018104;71;20350;-78
2022/08/20 05:05:07;;;;;;;6.15;3.25;;;;;;;17.91;70.09;92862.91;2018027;71;20329;-82
2022/08/20 05:07:41;;;;;;;5.13;3.50;;;;;;;18.00;71.24;92862.53;2018152;71;20162;-79
2022/08/20 05:10:10;;;;;;;5.18;3.50;;;;;;;18.04;69.73;92874.06;2014869;71;20150;-79
2022/08/20 05:12:36;;;;;;;4.30;3.08;;;;;;;18.19;67.82;92874.56;2018028;71;20569;-79
2022/08/20 05:15:03;;;;;;;5.63;3.30;;;;;;;18.04;71.13;92882.63;2014527;71;20222;-79
2022/08/20 05:17:28;;;;;;;5.25;3.38;;;;;;;17.98;70.87;92884.53;2017995;71;20161;-76
2022/08/20 05:19:54;;;;;;;4.15;3.25;;;;;;;17.96;72.19;92890.13;2017901;71;20158;-76
2022/08/20 05:22:20;;;;;;;4.57;3.55;;;;;;;17.94;71.26;92887.22;2018010;71;20173;-78
2022/08/20 05:24:45;;;;;;;6.28;3.38;;;;;;;18.06;71.01;92884.84;2017918;71;20564;-76
2022/08/20 05:27:11;;;;;;;7.32;3.58;;;;;;;18.20;68.89;92893.16;2017964;71;20584;-76
2022/08/20 05:29:36;;;;;;;7.20;3.42;;;;;;;18.17;71.06;92888.75;2018044;71;20531;-80
2022/08/20 05:32:02;;;;;;;8.07;3.45;;;;;;;18.20;69.27;92891.03;2017937;71;20185;-82
2022/08/20 05:34:28;;;;;;;6.40;3.40;;;;;;;18.14;69.71;92884.38;2018115;71;20185;-81
2022/08/20 05:36:54;;;;;;;6.22;3.42;;;;;;;18.13;71.46;92892.19;2017986;71;20153;-79
2022/08/20 05:39:21;;;;;;;4.57;2.80;;;;;;;18.31;67.47;92889.25;2017947;71;20195;-75
2022/08/20 05:41:49;;;;;;;5.57;2.97;;;;;;;18.20;70.27;92882.47;2018174;71;20552;-82
2022/08/20 05:44:17;;;;;;;7.50;3.38;;;;;;;18.19;70.52;92885.97;2017780;71;20158;-78
2022/08/20 05:46:45;;;;;;;5.35;3.20;;;;;;;18.20;70.68;92888.19;2019087;71;20212;-78
2022/08/20 05:49:15;;;;;;;6.93;3.42;;;;;;;18.20;70.94;92882.47;2017631;71;20168;-79
2022/08/20 05:51:40;;;;;;;5.25;3.10;;;;;;;18.16;70.96;92879.50;2016346;71;20189;-76
2022/08/20 05:54:06;;;;;;;5.95;2.85;;;;;;;18.15;71.58;92878.03;2019110;71;20165;-78
2022/08/20 05:56:33;;;;;;;5.60;2.85;;;;;;;18.33;69.74;92882.94;2019439;71;20590;-77
2022/08/20 05:59:03;;;;;;;4.32;2.90;;;;;;;18.15;71.53;92880.88;2019041;71;20591;-77
2022/08/20 06:01:30;;;;;;;3.45;2.95;;;;;;;18.22;69.87;92879.69;2019368;71;20601;-78
2022/08/20 06:06:41;;;;;;;6.65;3.10;;;;;;;18.13;72.15;92877.22;2019514;71;20270;-77
2022/08/20 06:09:08;;;;;;;6.03;2.85;;;;;;;18.35;69.94;92885.84;2019401;71;20248;-80
2022/08/20 06:11:33;;;;;;;3.72;3.00;;;;;;;18.47;67.69;92880.56;2019239;71;20162;-82
2022/08/20 06:13:59;;;;;;;5.05;3.40;;;;;;;18.41;69.05;92894.59;2020638;71;20317;-73
2022/08/20 06:16:25;;;;;;;4.93;3.50;;;;;;;18.38;68.81;92893.06;2023431;71;20244;-74
2022/08/20 06:18:51;;;;;;;4.68;3.58;;;;;;;18.36;71.22;92892.97;2024356;71;20220;-77
2022/08/20 06:21:17;;;;;;;4.30;3.17;;;;;;;18.40;70.84;92901.69;2023865;71;20204;-74
2022/08/20 06:23:44;;;;;;;5.95;3.20;;;;;;;18.41;69.90;92898.16;2019945;71;20193;-75
2022/08/20 06:26:10;;;;;;;3.38;2.83;;;;;;;18.47;68.46;92898.38;2023714;71;20166;-74
2022/08/20 06:28:36;;;;;;;4.60;2.92;;;;;;;18.45;70.39;92891.88;2021899;71;20149;-76
2022/08/20 06:31:01;;;;;;;4.85;2.92;;;;;;;18.53;70.06;92895.00;2020345;71;20237;-75
2022/08/20 06:33:27;;;;;;;4.78;3.10;;;;;;;18.57;69.47;92892.31;2020726;71;20165;-75
2022/08/20 06:35:54;;;;;;;4.60;3.17;;;;;;;18.58;70.06;92905.16;2020438;71;20222;-75
2022/08/20 06:38:20;;;;;;;3.78;2.80;;;;;;;18.57;69.91;92897.28;2019596;71;20158;-77
2022/08/20 06:40:46;;;;;;;3.50;3.00;;;;;;;18.59;68.90;92886.66;2019427;71;20165;-78
2022/08/20 06:43:12;;;;;;;3.28;2.50;;;;;;;18.50;69.84;92891.34;2019614;71;20153;-77
2022/08/20 06:45:38;;;;;;;6.15;2.88;;;;;;;18.68;68.58;92893.38;2019697;71;20157;-78
2022/08/20 06:48:10;;;;;;;5.80;3.08;;;;;;;18.74;67.10;92900.06;2019241;71;20241;-81
2022/08/20 06:50:40;;;;;;;5.40;2.83;;;;;;;18.74;67.67;92897.19;2019609;71;20170;-78
2022/08/20 06:53:07;;;;;;;4.57;3.20;;;;;;;18.71;68.75;92909.91;2019308;71;20162;-75
2022/08/20 06:55:35;;;;;;;5.28;3.30;;;;;;;18.73;69.52;92909.25;2019298;71;20696;-77
2022/08/20 06:58:09;;;;;;;5.45;3.60;;;;;;;18.66;69.27;92910.44;2019233;71;20318;-75
2022/08/20 07:00:40;;;;;;;5.57;2.92;;;;;;;18.69;69.69;92907.00;2019122;71;20249;-77
2022/08/20 07:03:05;;;;;;;4.15;3.15;;;;;;;18.77;67.83;92904.41;2016266;71;20141;-77
2022/08/20 07:05:35;;;;;;;4.18;3.45;;;;;;;18.69;68.48;92909.88;2019840;71;20153;-77
2022/08/20 07:08:04;;;;;;;5.85;3.88;;;;;;;18.69;70.51;92907.00;2018345;71;20166;-77
2022/08/20 07:10:30;;;;;;;4.50;3.38;;;;;;;18.74;68.91;92910.72;2019591;71;20713;-78
2022/08/20 07:12:58;;;;;;;6.05;3.47;;;;;;;18.78;69.48;92914.44;2016889;71;20210;-72
2022/08/20 07:15:27;;;;;;;8.13;2.80;;;;;;;18.88;68.62;92913.34;2019811;71;20173;-75
2022/08/20 07:17:57;;;;;;;4.53;3.20;;;;;;;18.86;69.61;92919.69;2015917;71;20165;-73
2022/08/20 07:20:24;;;;;;;5.20;3.28;;;;;;;18.71;68.25;92909.91;2019158;71;20201;-73
2022/08/20 07:22:53;;;;;;;3.92;2.80;;;;;;;18.83;69.09;92920.28;2018998;71;20193;-75
2022/08/20 07:25:22;;;;;;;3.30;2.90;;;;;;;18.83;69.11;92914.56;2016203;71;20168;-75
2022/08/20 07:27:58;;;;;;;4.00;3.10;;;;;;;18.80;70.67;92919.47;2019091;71;20680;-79
2022/08/20 07:33:20;;;;;;;4.40;3.08;;;;;;;18.97;68.23;92923.63;2018858;71;20180;-80
2022/08/20 07:35:47;;;;;;;4.40;2.97;;;;;;;19.05;67.61;92918.16;2019792;71;20697;-73
2022/08/20 07:38:23;;;;;;;4.35;3.15;;;;;;;19.04;68.87;92923.13;2018621;71;20250;-74
2022/08/20 07:40:54;;;;;;;5.03;2.90;;;;;;;18.94;71.14;92928.50;2019038;71;20300;-75
2022/08/20 07:43:23;;;;;;;4.85;3.00;;;;;;;19.04;67.21;92919.56;2019008;71;20216;-75
2022/08/20 07:45:51;;;;;;;4.28;3.00;;;;;;;19.12;66.88;92928.38;2015779;71;20203;-78
2022/08/20 07:48:18;;;;;;;6.10;3.42;;;;;;;19.08;68.05;92924.69;2016113;71;20189;-74
2022/08/20 07:50:47;;;;;;;4.32;3.15;;;;;;;19.16;68.38;92928.53;2018622;71;20201;-75
2022/08/20 07:53:13;;;;;;;5.95;3.45;;;;;;;19.17;68.56;92926.41;2018878;71;20153;-74
2022/08/20 07:55:40;;;;;;;4.13;3.38;;;;;;;19.23;70.15;92920.88;2015684;71;20206;-75
2022/08/20 07:58:13;;;;;;;6.97;3.78;;;;;;;19.27;67.86;92933.16;2019037;71;20153;-77
2022/08/20 08:00:40;;;;;;;4.10;3.33;;;;;;;19.35;67.53;92946.25;2019303;71;20170;-75
2022/08/20 08:03:06;;;;;;;5.65;3.40;;;;;;;19.38;69.90;92950.59;2016335;71;20162;-74
2022/08/20 08:05:39;;;;;;;6.35;2.90;;;;;;;19.36;68.39;92950.53;2017314;71;20156;-75
2022/08/20 08:08:10;;;;;;;3.95;3.20;;;;;;;19.35;68.55;92954.81;2019336;71;20202;-75
2022/08/20 08:10:36;;;;;;;4.60;3.13;;;;;;;19.42;65.88;92956.44;2019617;71;20222;-80
2022/08/20 08:13:07;;;;;;;5.13;3.22;;;;;;;19.41;65.92;92961.44;2019613;71;20256;-75
2022/08/20 08:15:39;;;;;;;5.15;3.95;;;;;;;19.39;67.24;92967.09;2019412;71;20178;-76
2022/08/20 09:30:40;;;;;;;5.25;3.35;;;;;;;20.00;68.91;92991.13;2014803;71;20201;-76
2022/08/20 09:33:06;;;;;;;4.93;2.80;;;;;;;20.09;66.08;92995.69;2014200;71;20181;-75
2022/08/20 09:35:33;;;;;;;5.22;2.97;;;;;;;20.06;68.84;92989.19;2012807;71;20146;-75
2022/08/20 09:37:59;;;;;;;10.05;5.40;;;;;;;19.99;69.09;92992.53;2016059;71;20171;-75
2022/08/20 09:40:24;;;;;;;5.63;2.97;;;;;;;19.94;68.87;92982.38;2017173;71;20253;-75
2022/08/20 09:42:50;;;;;;;3.65;3.05;;;;;;;20.10;67.54;92988.56;2017838;71;20330;-74
2022/08/20 09:45:16;;;;;;;7.55;3.47;;;;;;;20.16;66.88;92982.31;2017571;71;20487;-74
2022/08/20 09:47:42;;;;;;;5.05;3.28;;;;;;;20.02;70.27;92979.75;2017666;71;20190;-73
2022/08/20 09:50:08;;;;;;;5.53;3.15;;;;;;;20.03;70.23;92973.38;2017952;71;20241;-74
2022/08/20 09:52:38;;;;;;;4.97;3.67;;;;;;;19.66;71.91;92973.66;2018107;71;20240;-75
2022/08/20 09:55:14;;;;;;;5.72;2.85;;;;;;;20.01;66.47;92978.28;2017935;71;20238;-74
2022/08/20 09:57:40;;;;;;;6.50;3.17;;;;;;;19.96;70.75;92971.00;2012061;71;20166;-75
2022/08/20 10:00:08;;;;;;;3.90;3.15;;;;;;;20.11;66.51;92978.59;2016623;71;20177;-75
2022/08/20 10:02:40;;;;;;;4.78;3.60;;;;;;;20.13;70.60;92975.09;2019075;71;20164;-75
2022/08/20 10:05:06;;;;;;;4.00;3.60;;;;;;;20.20;68.33;92979.56;2014300;71;20161;-75
2022/08/20 10:07:33;;;;;;;4.97;3.95;;;;;;;20.19;69.01;92969.53;2011903;71;20154;-74
2022/08/20 10:10:18;;;;;;;5.32;3.85;;;;;;;20.25;65.38;92976.19;2015760;71;20158;-75
2022/08/20 10:12:45;;;;;;;7.50;5.43;;;;;;;19.89;70.28;92981.53;2014518;71;20165;-76
2022/08/20 10:15:11;;;;;;;5.20;3.45;;;;;;;19.20;73.40;92982.16;2014469;71;20185;-77
2022/08/20 10:17:41;;;;;;;3.88;3.20;;;;;;;19.31;72.48;92981.09;2014569;71;20146;-76
2022/08/20 10:20:10;;;;;;;4.10;3.25;;;;;;;19.62;70.54;92984.97;2014411;71;20249;-75
2022/08/20 10:22:36;;;;;;;7.60;3.30;;;;;;;19.97;67.57;92978.91;2014379;71;20200;-76
2022/08/20 10:25:03;;;;;;;3.58;3.25;;;;;;;20.09;67.51;92981.41;2014683;71;20508;-77
2022/08/20 10:27:28;;;;;;;3.88;3.47;;;;;;;20.05;69.20;92982.00;2015492;71;20165;-77
2022/08/20 10:29:54;;;;;;;6.13;3.30;;;;;;;20.15;65.24;92975.13;2012868;71;20154;-77
2022/08/20 10:32:19;;;;;;;4.15;3.40;;;;;;;20.19;67.63;92975.25;2014681;71;20186;-76
2022/08/20 10:34:45;;;;;;;7.15;3.38;;;;;;;20.30;66.88;92974.16;2012079;71;20188;-76
2022/08/20 10:37:22;;;;;;;4.53;3.42;;;;;;;20.38;67.29;92974.38;2012814;71;20138;-77
2022/08/20 10:39:48;;;;;;;3.58;3.28;;;;;;;20.31;66.24;92969.91;2016049;71;20150;-76
2022/08/20 10:42:14;;;;;;;5.80;3.00;;;;;;;20.41;65.07;92955.91;2018218;71;20142;-76
2022/08/20 10:44:40;;;;;;;3.80;3.10;;;;;;;20.50;64.54;92960.47;2016578;71;20156;-77
2022/08/20 10:47:16;;;;;;;4.95;3.20;;;;;;;20.66;66.78;92957.31;2015770;71;20160;-77
2022/08/20 10:49:42;;;;;;;4.18;3.15;;;;;;;20.86;64.28;92956.44;2015751;71;20237;-76
2022/08/20 10:52:07;;;;;;;4.07;3.20;;;;;;;20.96;65.03;92963.13;2015619;71;20640;-77
2022/08/20 10:54:33;;;;;;;4.30;3.45;;;;;;;21.09;63.18;92961.34;2016238;71;20247;-76
2022/08/20 10:57:03;;;;;;;4.45;3.20;;;;;;;21.31;63.66;92964.78;2019105;71;20153;-77
2022/08/20 10:59:29;;;;;;;5.00;3.03;;;;;;;21.73;62.18;92960.78;2019068;71;20599;-77
2022/08/20 11:01:55;;;;;;;4.15;3.40;;;;;;;21.80;61.39;92956.63;2019035;71;20161;-76
2022/08/20 11:04:21;;;;;;;3.63;3.08;;;;;;;21.74;61.74;92959.38;2018918;71;20515;-76
2022/08/20 11:06:47;;;;;;;6.10;3.42;;;;;;;21.81;63.10;92955.25;2015373;71;20154;-76
2022/08/20 11:09:12;;;;;;;4.10;3.15;;;;;;;22.92;59.11;92956.16;2016846;71;20177;-75
2022/08/20 11:11:38;;;;;;;3.70;3.22;;;;;;;22.98;58.85;92955.56;2017371;71;20189;-76
2022/08/20 11:14:04;;;;;;;4.43;3.10;;;;;;;27.01;49.86;92953.59;2019106;71;20150;-75
2022/08/20 11:16:29;;;;;;;3.58;2.90;;;;;;;25.51;51.94;92959.13;2019101;71;20173;-76
2022/08/20 11:18:55;;;;;;;3.22;2.92;;;;;;;28.92;44.66;92963.75;2018974;71;20610;-78
2022/08/20 11:21:20;;;;;;;2.75;2.47;;;;;;;33.44;37.83;92962.66;2015467;71;20158;-74
2022/08/20 11:23:46;;;;;;;2.97;2.53;;;;;;;35.61;34.30;92961.59;2019023;71;20513;-76
2022/08/20 11:26:21;;;;;;;3.25;2.50;;;;;;;32.03;35.20;92956.47;2015491;71;20177;-75
2022/08/20 11:28:46;;;;;;;2.40;2.20;;;;;;;34.98;31.13;92957.53;2018052;71;20168;-74
2022/08/20 11:31:13;;;;;;;2.90;2.20;;;;;;;37.45;29.20;92958.47;2018039;71;20152;-74
2022/08/20 11:33:38;;;;;;;4.25;2.08;;;;;;;36.21;28.20;92957.56;2018180;71;20142;-75
2022/08/20 11:36:04;;;;;;;1.63;1.52;;;;;;;34.00;30.65;92945.38;2018175;71;20169;-74
2022/08/20 11:38:30;;;;;;;1.92;1.52;;;;;;;36.68;27.97;92949.44;2018225;71;20243;-78
2022/08/20 11:40:57;;;;;;;1.70;1.60;;;;;;;40.38;25.14;92954.13;2014721;71;20181;-76
2022/08/20 11:43:22;;;;;;;1.85;1.70;;;;;;;38.99;25.16;92953.13;2018845;71;20503;-76
2022/08/20 11:45:53;;;;;;;1.65;1.40;;;;;;;39.57;25.21;92943.91;2018089;71;20137;-74
2022/08/20 11:48:19;;;;;;;2.33;1.50;;;;;;;41.50;23.62;92944.81;2018893;71;20146;-78
2022/08/20 11:50:46;;;;;;;2.08;1.30;;;;;;;38.30;25.38;92941.97;2018830;71;20198;-75
2022/08/20 11:53:12;;;;;;;1.83;1.67;;;;;;;35.26;29.49;92926.03;2018936;71;20452;-73
2022/08/20 11:55:38;;;;;;;1.70;1.60;;;;;;;34.53;30.86;92923.59;2014432;71;20157;-74
2022/08/20 11:58:03;;;;;;;2.90;1.63;;;;;;;37.53;27.12;92931.03;2017039;71;20179;-75
2022/08/20 12:00:30;;;;;;;2.78;1.60;;;;;;;34.53;30.81;92920.69;2012632;71;20154;-75
2022/08/20 12:02:57;;;;;;;1.90;1.73;;;;;;;38.43;26.37;92933.41;2015454;71;20162;-75
2022/08/20 12:05:22;;;;;;;1.48;1.38;;;;;;;39.79;24.42;92921.56;2013205;71;20184;-74
2022/08/20 12:07:48;;;;;;;1.50;1.40;;;;;;;35.00;27.80;92910.66;2013392;71;20153;-76
2022/08/20 12:10:14;;;;;;;1.38;1.27;;;;;;;37.79;26.51;92912.38;2012905;71;20288;-76
2022/08/20 12:12:41;;;;;;;2.15;1.27;;;;;;;36.87;25.25;92909.88;2012877;71;20196;-76
2022/08/20 12:15:08;;;;;;;1.67;1.20;;;;;;;40.33;22.43;92911.63;2016719;71;20157;-76
2022/08/20 12:17:34;;;;;;;1.88;1.20;;;;;;;39.62;23.29;92903.91;2013239;71;20153;-76
2022/08/20 12:20:03;;;;;;;1.35;1.02;;;;;;;38.94;23.11;92907.72;2011820;71;20327;-76
2022/08/20 12:22:29;;;;;;;1.25;1.15;;;;;;;42.22;20.64;92912.09;2011715;71;20162;-76
2022/08/20 12:24:55;;;;;;;1.95;1.30;;;;;;;40.22;23.06;92895.94;2011752;71;20182;-76
2022/08/20 12:27:24;;;;;;;3.22;1.33;;;;;;;41.95;21.06;92895.13;2015163;71;20541;-77
2022/08/20 12:29:53;;;;;;;1.30;1.20;;;;;;;42.03;20.91;92900.56;2014848;71;20175;-76
2022/08/20 12:32:20;;;;;;;1.33;1.05;;;;;;;42.91;20.78;92898.50;2011653;71;20158;-76
2022/08/20 12:34:47;;;;;;;2.38;1.17;;;;;;;43.03;20.12;92888.91;2015099;71;20661;-75
2022/08/20 12:37:15;;;;;;;1.20;1.10;;;;;;;40.49;21.98;92874.69;2015164;71;20151;-75
2022/08/20 12:39:44;;;;;;;1.38;0.98;;;;;;;41.00;20.70;92872.13;2015209;71;20200;-75
2022/08/20 12:42:11;;;;;;;2.10;1.10;;;;;;;40.62;21.79;92863.75;2015185;71;20673;-76
2022/08/20 12:44:37;;;;;;;1.52;1.08;;;;;;;38.52;23.40;92869.78;2011628;71;20154;-75
2022/08/20 12:47:12;;;;;;;2.05;1.00;;;;;;;40.81;21.30;92866.44;2015186;71;20249;-77
2022/08/20 12:49:40;;;;;;;1.10;1.00;;;;;;;41.49;20.65;92862.94;2015179;71;20183;-77
2022/08/20 12:52:07;;;;;;;1.67;1.10;;;;;;;39.12;23.20;92853.94;2015112;71;20239;-77
2022/08/20 12:54:33;;;;;;;2.90;1.00;;;;;;;38.64;23.92;92845.75;2015226;71;20204;-75
2022/08/20 12:56:59;;;;;;;1.95;1.15;;;;;;;37.46;24.19;92853.50;2014232;71;20182;-76
2022/08/20 12:59:25;;;;;;;2.08;1.10;;;;;;;38.56;23.57;92849.03;2016776;71;20241;-76
2022/08/20 13:01:52;;;;;;;2.88;1.20;;;;;;;37.45;26.52;92846.91;2016838;71;20184;-78